Glenhaven, California
Current Conditions -  °F | °C
As of 10:20 AM on Sunday 21 Dec 2014 (Local Time) from KUKI Reporting Station
Haze Haze  
Wind Chill: 56°   Ceiling: 2200
Heat Index: 56°   Visibility: 5mi
Dew Point: 53°   Wind: 0mph
Humidity: 90%   Direction: NA
Pressure: 30.31"   Gusts: NA
Location:  39.03°N, 122.73°W
Report Text: KUKI 211820Z AUTO 00000KT 5SM BR SCT005 BKN022 OVC042 13/12 A3031 RMK AO2 RAB1759E17 P0000 T01330117
Loading
Personal Weather Stations






























Interactive Weather Map New forecast layout! Learn more

10-Day Weather Forecast

Advertisements
Track Severe Weather on mobile